Time;durP1;ratioP1;P1;durP2;ratioP2;P2;SDS_P1;SDS_P2;PMS_P1;PMS_P2;Temp;Humidity;BMP_temperature;BMP_pressure;BME280_temperature;BME280_humidity;BME280_pressure;Samples;Min_cycle;Max_cycle;Signal;HPM_P1;HPM_P2
2022/11/07 00:02:10;;;;;;;11.10;4.97;;;7.70;99.90;;;;;;5113110;28;20159;-72
2022/11/07 00:04:36;;;;;;;9.15;4.80;;;7.70;99.90;;;;;;5112651;28;20034;-70
2022/11/07 00:07:02;;;;;;;9.90;4.60;;;7.60;99.90;;;;;;5113195;28;20475;-71
2022/11/07 00:09:27;;;;;;;13.35;5.70;;;7.60;99.90;;;;;;5112307;28;20091;-71
2022/11/07 00:11:53;;;;;;;10.27;5.30;;;7.60;99.90;;;;;;5112681;28;20332;-71
2022/11/07 00:14:19;;;;;;;9.40;5.30;;;7.60;99.90;;;;;;5112338;28;20054;-70
2022/11/07 00:16:46;;;;;;;12.15;5.28;;;7.60;99.90;;;;;;5112753;28;20019;-71
2022/11/07 00:19:15;;;;;;;14.90;6.95;;;7.60;99.90;;;;;;5112907;28;20041;-71
2022/11/07 00:21:40;;;;;;;12.30;6.43;;;7.60;99.90;;;;;;5111219;28;20066;-71
2022/11/07 00:24:07;;;;;;;16.77;7.95;;;7.70;99.90;;;;;;5110531;28;20444;-71
2022/11/07 00:26:33;;;;;;;17.70;8.10;;;7.70;99.90;;;;;;5093629;28;20035;-71
2022/11/07 00:28:59;;;;;;;13.48;7.82;;;7.70;99.90;;;;;;5092472;28;20032;-70
2022/11/07 00:31:25;;;;;;;20.42;9.00;;;7.70;99.90;;;;;;5091810;28;20024;-72
2022/11/07 00:33:51;;;;;;;15.32;8.27;;;7.80;99.90;;;;;;5092272;28;20097;-72
2022/11/07 00:36:23;;;;;;;15.90;8.27;;;7.80;99.90;;;;;;5092486;28;20059;-71
2022/11/07 00:38:48;;;;;;;18.75;7.57;;;7.80;99.90;;;;;;5092641;28;20028;-71
2022/11/07 00:41:14;;;;;;;16.08;7.30;;;7.80;99.90;;;;;;5092371;28;20027;-71
2022/11/07 00:43:40;;;;;;;12.98;7.63;;;7.80;99.90;;;;;;5091757;28;20105;-71
2022/11/07 00:46:07;;;;;;;16.00;6.93;;;7.70;99.90;;;;;;5092299;28;20028;-71
2022/11/07 00:48:33;;;;;;;14.18;7.55;;;7.70;99.90;;;;;;5091912;28;20028;-72
2022/11/07 00:51:11;;;;;;;14.10;7.60;;;7.70;99.90;;;;;;5092143;28;20448;-70
2022/11/07 00:53:38;;;;;;;13.80;7.32;;;7.60;99.90;;;;;;5091568;28;20032;-71
2022/11/07 00:56:07;;;;;;;16.30;7.78;;;7.60;99.90;;;;;;5110948;28;20396;-71
2022/11/07 00:58:33;;;;;;;14.57;6.97;;;7.60;99.90;;;;;;5112129;28;20020;-71
2022/11/07 01:00:59;;;;;;;17.25;6.70;;;7.60;99.90;;;;;;5112533;28;20055;-70
2022/11/07 01:06:10;;;;;;;15.38;7.32;;;7.60;99.90;;;;;;5113722;28;20034;-70
2022/11/07 01:08:36;;;;;;;12.20;6.85;;;7.50;99.90;;;;;;5115649;28;20464;-71
2022/11/07 01:11:05;;;;;;;13.57;7.25;;;7.50;99.90;;;;;;5116053;28;20039;-71
2022/11/07 01:13:31;;;;;;;14.55;7.13;;;7.50;99.90;;;;;;5115888;28;20027;-70
2022/11/07 01:15:56;;;;;;;12.60;6.25;;;7.50;99.90;;;;;;5116249;28;20026;-71
2022/11/07 01:18:22;;;;;;;15.23;7.22;;;7.50;99.90;;;;;;5115864;28;20027;-74
2022/11/07 01:20:48;;;;;;;13.80;6.72;;;7.40;99.90;;;;;;5116142;28;20130;-71
2022/11/07 01:23:15;;;;;;;13.63;6.65;;;7.40;99.90;;;;;;5116071;28;20058;-71
2022/11/07 01:25:41;;;;;;;15.85;6.43;;;7.40;99.90;;;;;;5115409;28;20038;-71
2022/11/07 01:28:08;;;;;;;11.07;6.43;;;7.40;99.90;;;;;;5115660;28;20027;-71
2022/11/07 01:30:38;;;;;;;11.73;5.47;;;7.50;99.90;;;;;;5115547;28;20483;-71
2022/11/07 01:33:03;;;;;;;13.02;6.00;;;7.50;99.90;;;;;;5115899;28;20035;-71
2022/11/07 01:35:30;;;;;;;12.98;6.53;;;7.50;99.90;;;;;;5115139;28;20040;-71
2022/11/07 01:37:56;;;;;;;13.65;6.22;;;7.50;99.90;;;;;;5116036;28;20024;-71
2022/11/07 01:40:22;;;;;;;13.45;6.47;;;7.50;99.90;;;;;;5115748;28;20030;-71
2022/11/07 01:42:47;;;;;;;15.68;5.72;;;7.50;99.90;;;;;;5115236;28;20028;-72
2022/11/07 01:45:22;;;;;;;11.05;6.20;;;7.40;99.90;;;;;;5115437;28;20129;-71
2022/11/07 01:47:49;;;;;;;12.15;6.30;;;7.40;99.90;;;;;;5115261;28;20034;-70
2022/11/07 01:50:16;;;;;;;10.75;5.95;;;7.40;99.90;;;;;;5115602;28;20508;-71
2022/11/07 01:52:44;;;;;;;13.85;5.85;;;7.40;99.90;;;;;;5114861;28;20034;-72
2022/11/07 01:55:21;;;;;;;20.38;5.78;;;7.30;99.90;;;;;;5115660;28;20016;-71
2022/11/07 01:57:57;;;;;;;10.18;6.30;;;7.30;99.90;;;;;;5115123;28;20365;-71
2022/11/07 02:00:23;;;;;;;13.52;7.43;;;7.40;99.90;;;;;;5115450;28;20028;-70
2022/11/07 02:02:57;;;;;;;10.80;5.60;;;7.40;99.90;;;;;;5114554;28;20521;-71
2022/11/07 02:05:35;;;;;;;12.18;5.88;;;7.40;99.90;;;;;;5115427;28;20448;-72
2022/11/07 02:08:05;;;;;;;12.13;6.03;;;7.40;99.90;;;;;;5113856;28;20092;-72
2022/11/07 02:10:33;;;;;;;11.57;6.18;;;7.40;99.90;;;;;;5114912;28;20085;-72
2022/11/07 02:12:59;;;;;;;10.40;5.57;;;7.40;99.90;;;;;;5113961;28;20114;-71
2022/11/07 02:15:25;;;;;;;18.42;6.03;;;7.40;99.90;;;;;;5113746;28;20031;-71
2022/11/07 02:17:52;;;;;;;8.35;5.32;;;7.50;99.90;;;;;;5113408;28;20022;-71
2022/11/07 02:20:17;;;;;;;14.80;5.47;;;7.50;99.90;;;;;;5114683;28;20031;-71
2022/11/07 02:22:49;;;;;;;9.07;4.85;;;7.50;99.90;;;;;;5114510;28;20039;-70
2022/11/07 02:25:17;;;;;;;10.48;5.63;;;7.50;99.90;;;;;;5114902;28;20028;-71
2022/11/07 02:27:44;;;;;;;13.93;5.43;;;7.60;99.90;;;;;;5109851;28;20031;-71
2022/11/07 02:30:11;;;;;;;13.52;6.30;;;7.50;99.90;;;;;;5094421;28;20080;-71
2022/11/07 02:32:37;;;;;;;11.50;5.53;;;7.50;99.90;;;;;;5093720;28;20048;-71
2022/11/07 02:35:33;;;;;;;11.77;5.70;;;7.50;99.90;;;;;;5093948;28;20055;-71
2022/11/07 02:38:01;;;;;;;12.20;5.38;;;7.50;99.90;;;;;;5094263;28;20024;-71
2022/11/07 02:40:30;;;;;;;11.70;4.68;;;7.50;99.90;;;;;;5093869;28;20404;-73
2022/11/07 02:42:58;;;;;;;7.88;4.80;;;7.60;99.90;;;;;;5094075;28;20032;-72
2022/11/07 02:45:30;;;;;;;8.98;4.38;;;7.60;99.90;;;;;;5094053;28;20020;-71
2022/11/07 02:47:55;;;;;;;11.18;4.72;;;7.60;99.90;;;;;;5097591;28;20031;-72
2022/11/07 02:50:21;;;;;;;9.27;4.47;;;7.60;99.90;;;;;;5114282;28;20080;-71
2022/11/07 02:52:47;;;;;;;13.20;5.00;;;7.60;99.90;;;;;;5113867;28;20031;-71
2022/11/07 02:55:13;;;;;;;7.22;4.90;;;7.60;99.90;;;;;;5112933;28;20114;-71
2022/11/07 02:57:39;;;;;;;14.80;5.13;;;7.60;99.90;;;;;;5113889;28;20038;-71
2022/11/07 03:00:07;;;;;;;8.82;4.53;;;7.60;99.90;;;;;;5114120;28;20476;-71
2022/11/07 03:02:32;;;;;;;7.53;4.65;;;7.60;99.90;;;;;;5113453;28;20024;-71
2022/11/07 03:04:58;;;;;;;10.57;4.80;;;7.60;99.90;;;;;;5114361;28;20038;-70
2022/11/07 03:07:25;;;;;;;10.15;4.72;;;7.60;99.90;;;;;;5114143;28;20027;-71
2022/11/07 03:09:51;;;;;;;8.30;4.57;;;7.60;99.90;;;;;;5113646;28;20046;-72
2022/11/07 03:12:16;;;;;;;8.48;4.55;;;7.60;99.90;;;;;;5113884;28;20020;-71
2022/11/07 03:14:42;;;;;;;12.02;5.70;;;7.60;99.90;;;;;;5113308;28;20031;-70
2022/11/07 03:17:08;;;;;;;10.57;5.00;;;7.60;99.90;;;;;;5112514;28;20028;-72
2022/11/07 03:19:33;;;;;;;10.18;5.22;;;7.60;99.90;;;;;;5113509;28;20077;-72
2022/11/07 03:21:59;;;;;;;8.15;4.78;;;7.60;99.90;;;;;;5113793;28;20049;-72
2022/11/07 03:24:25;;;;;;;12.23;5.28;;;7.60;99.90;;;;;;5113402;28;20042;-72
2022/11/07 03:26:51;;;;;;;9.07;4.43;;;7.70;99.90;;;;;;5113198;28;20265;-72
2022/11/07 03:29:16;;;;;;;8.82;5.38;;;7.70;99.90;;;;;;5113130;28;20031;-72
2022/11/07 03:31:42;;;;;;;11.00;4.75;;;7.70;99.90;;;;;;5113118;28;20023;-71
2022/11/07 03:34:08;;;;;;;10.40;4.60;;;7.70;99.90;;;;;;5113464;28;20077;-71
2022/11/07 03:36:35;;;;;;;7.60;4.10;;;7.70;99.90;;;;;;5112913;28;20028;-71
2022/11/07 03:39:00;;;;;;;9.95;4.10;;;7.70;99.90;;;;;;5113183;28;20019;-71
2022/11/07 03:41:26;;;;;;;11.00;4.55;;;7.70;99.90;;;;;;5113701;28;20152;-71
2022/11/07 03:43:52;;;;;;;7.88;4.60;;;7.80;99.90;;;;;;5112955;28;20039;-71
2022/11/07 03:46:18;;;;;;;7.43;4.07;;;7.80;99.90;;;;;;5113258;28;20027;-71
2022/11/07 03:48:44;;;;;;;7.97;4.38;;;7.90;99.90;;;;;;5112891;28;20027;-71
2022/11/07 03:51:11;;;;;;;9.40;4.07;;;7.90;99.90;;;;;;5113195;28;20066;-71
2022/11/07 03:53:36;;;;;;;6.20;3.90;;;7.90;99.90;;;;;;5112783;28;20044;-71
2022/11/07 03:56:08;;;;;;;7.68;3.45;;;8.00;99.90;;;;;;5114281;28;20077;-72
2022/11/07 03:58:33;;;;;;;;;;;8.10;99.90;;;;;;5116726;28;20344;-78
2022/11/07 04:00:59;;;;;;;6.72;3.65;;;8.20;99.90;;;;;;5115676;28;19910;-71
2022/11/07 04:03:25;;;;;;;6.53;3.60;;;8.30;99.90;;;;;;5116144;28;20089;-71
2022/11/07 04:05:50;;;;;;;5.97;4.10;;;8.40;99.90;;;;;;5116037;28;20028;-72
2022/11/07 04:08:16;;;;;;;6.93;3.83;;;8.60;99.90;;;;;;5117017;28;20054;-71
2022/11/07 04:10:42;;;;;;;7.03;4.03;;;8.70;99.90;;;;;;5116427;28;20408;-71
2022/11/07 04:18:37;;;;;;;8.38;4.03;;;9.10;99.80;;;;;;5112785;28;20051;-73
2022/11/07 04:21:02;;;;;;;4.75;3.30;;;9.20;99.60;;;;;;5112842;28;20465;-72
2022/11/07 04:23:28;;;;;;;5.00;3.55;;;9.30;99.40;;;;;;5113162;28;20031;-72
2022/11/07 04:28:38;;;;;;;5.57;3.85;;;9.40;99.10;;;;;;5095497;28;20035;-72
2022/11/07 04:31:04;;;;;;;6.10;4.25;;;9.40;99.30;;;;;;5091429;28;20384;-70
2022/11/07 04:33:29;;;;;;;7.07;4.30;;;9.40;99.30;;;;;;5092272;28;20096;-71
2022/11/07 04:35:55;;;;;;;6.95;3.95;;;9.50;99.50;;;;;;5092088;28;20032;-71
2022/11/07 04:38:21;;;;;;;6.78;4.05;;;9.50;99.60;;;;;;5093132;28;20103;-72
2022/11/07 04:40:55;;;;;;;9.02;4.38;;;9.50;99.90;;;;;;5113040;28;20027;-72
2022/11/07 04:43:25;;;;;;;6.38;3.90;;;9.50;99.90;;;;;;5116606;28;20035;-72
2022/11/07 04:45:52;;;;;;;5.70;4.68;;;9.60;99.90;;;;;;5116791;28;20380;-73
2022/11/07 04:48:18;;;;;;;7.75;4.70;;;9.60;99.90;;;;;;5116773;28;20027;-71
2022/11/07 04:50:44;;;;;;;9.45;4.82;;;9.60;99.90;;;;;;5116295;28;20032;-71
2022/11/07 04:53:14;;;;;;;9.38;4.85;;;9.60;99.90;;;;;;5116682;28;20023;-70
2022/11/07 04:55:40;;;;;;;5.90;4.65;;;9.70;99.90;;;;;;5116263;28;20475;-72
2022/11/07 04:58:06;;;;;;;8.27;4.70;;;9.70;99.90;;;;;;5116209;28;20086;-72
2022/11/07 05:00:32;;;;;;;6.78;4.68;;;9.70;99.90;;;;;;5116517;28;20039;-71
2022/11/07 05:02:58;;;;;;;7.65;4.65;;;9.70;99.90;;;;;;5115773;28;20051;-72
2022/11/07 05:05:24;;;;;;;8.15;4.65;;;9.70;99.90;;;;;;5116547;28;20023;-73
2022/11/07 05:07:50;;;;;;;6.03;4.03;;;9.70;99.90;;;;;;5114716;28;20019;-72
2022/11/07 05:10:27;;;;;;;7.93;4.95;;;9.70;99.90;;;;;;5116262;28;20027;-72
2022/11/07 05:12:53;;;;;;;6.95;4.55;;;9.70;99.90;;;;;;5115870;28;20028;-71
2022/11/07 05:15:20;;;;;;;8.45;4.95;;;9.70;99.90;;;;;;5115927;28;20093;-71
2022/11/07 05:17:46;;;;;;;7.20;4.90;;;9.70;99.90;;;;;;5115528;28;20321;-71
2022/11/07 05:20:21;;;;;;;6.07;4.47;;;9.70;99.90;;;;;;5116099;28;20122;-71
2022/11/07 05:25:31;;;;;;;7.22;4.57;;;9.70;99.90;;;;;;5115836;28;20038;-71
2022/11/07 05:27:57;;;;;;;10.05;5.45;;;9.70;99.90;;;;;;5115294;28;20028;-72
2022/11/07 05:30:22;;;;;;;8.73;5.82;;;9.70;99.90;;;;;;5115928;28;20032;-72
2022/11/07 05:32:48;;;;;;;11.20;5.57;;;9.70;99.90;;;;;;5115122;28;20080;-72
2022/11/07 05:35:14;;;;;;;11.88;5.78;;;9.60;99.90;;;;;;5114197;28;20055;-72
2022/11/07 05:37:39;;;;;;;12.32;7.30;;;9.50;99.90;;;;;;5114552;28;20031;-71
2022/11/07 05:40:06;;;;;;;14.05;7.28;;;9.40;99.90;;;;;;5114102;28;20030;-70
2022/11/07 05:42:32;;;;;;;11.27;6.20;;;9.30;99.90;;;;;;5114466;28;20050;-72
2022/11/07 05:44:57;;;;;;;12.73;6.03;;;9.30;99.90;;;;;;5114124;28;20440;-71
2022/11/07 05:47:23;;;;;;;12.43;6.95;;;9.10;99.90;;;;;;5114668;28;20024;-72
2022/11/07 05:49:48;;;;;;;11.13;7.25;;;9.00;99.90;;;;;;5114220;28;20035;-71
2022/11/07 05:52:14;;;;;;;15.18;6.70;;;9.00;99.90;;;;;;5113136;28;20024;-72
2022/11/07 05:54:40;;;;;;;10.85;6.75;;;8.90;99.90;;;;;;5114149;28;20024;-71
2022/11/07 05:57:05;;;;;;;9.13;6.13;;;8.80;99.90;;;;;;5113846;28;20031;-71
2022/11/07 05:59:31;;;;;;;9.77;6.13;;;8.70;99.90;;;;;;5114503;28;20073;-72
2022/11/07 06:01:56;;;;;;;12.18;6.18;;;8.60;99.90;;;;;;5113947;28;20020;-71
2022/11/07 06:04:22;;;;;;;13.50;7.20;;;8.50;99.90;;;;;;5113967;28;20352;-71
2022/11/07 06:06:48;;;;;;;10.85;6.85;;;8.40;99.90;;;;;;5113386;28;20031;-72
2022/11/07 06:09:13;;;;;;;12.20;6.65;;;8.40;99.90;;;;;;5113635;28;20365;-72
2022/11/07 06:11:39;;;;;;;13.20;7.07;;;8.30;99.90;;;;;;5113672;28;20405;-72
2022/11/07 06:14:05;;;;;;;11.73;6.90;;;8.30;99.90;;;;;;5113529;28;20024;-72
2022/11/07 06:16:30;;;;;;;10.15;6.20;;;8.20;99.90;;;;;;5113939;28;20368;-71
2022/11/07 06:18:56;;;;;;;10.35;6.80;;;8.20;99.90;;;;;;5113595;28;20030;-71
2022/11/07 06:21:22;;;;;;;11.75;6.68;;;8.10;99.90;;;;;;5113428;28;20030;-71
2022/11/07 06:23:47;;;;;;;12.82;7.45;;;8.10;99.90;;;;;;5113178;28;20127;-73
2022/11/07 06:26:13;;;;;;;13.07;7.10;;;8.10;99.90;;;;;;5113735;28;20106;-72
2022/11/07 06:28:39;;;;;;;12.32;7.00;;;8.00;99.90;;;;;;5113939;28;20112;-71
2022/11/07 06:31:05;;;;;;;12.15;7.78;;;8.10;99.90;;;;;;5113298;28;20379;-71
2022/11/07 06:33:31;;;;;;;9.85;6.40;;;8.10;99.90;;;;;;5074041;28;1118515;-72
2022/11/07 06:36:08;;;;;;;11.55;6.57;;;8.00;99.90;;;;;;5104260;28;20036;-71
2022/11/07 06:38:34;;;;;;;9.77;6.13;;;8.00;99.90;;;;;;5094401;28;20035;-71
2022/11/07 06:41:09;;;;;;;10.80;6.03;;;8.00;99.90;;;;;;5093801;28;20350;-71
2022/11/07 06:43:35;;;;;;;9.27;5.50;;;8.00;99.90;;;;;;5098971;28;20028;-72
2022/11/07 06:46:03;;;;;;;9.13;5.70;;;8.00;99.90;;;;;;5114026;28;20027;-72
2022/11/07 06:48:29;;;;;;;10.57;5.63;;;8.00;99.90;;;;;;5114463;28;20499;-71
2022/11/07 06:50:57;;;;;;;10.48;5.22;;;8.00;99.90;;;;;;5112612;28;20036;-72
2022/11/07 06:53:22;;;;;;;7.75;5.32;;;8.10;99.90;;;;;;5113972;28;20084;-71
2022/11/07 06:55:48;;;;;;;7.95;5.13;;;8.10;99.90;;;;;;5113884;28;20027;-72
2022/11/07 06:58:13;;;;;;;11.63;5.53;;;8.10;99.90;;;;;;5114000;28;20084;-71
2022/11/07 07:00:39;;;;;;;11.13;5.13;;;8.10;99.90;;;;;;5114206;28;20364;-71
2022/11/07 07:03:05;;;;;;;7.75;5.20;;;8.20;99.90;;;;;;5113023;28;20058;-72
2022/11/07 07:05:32;;;;;;;7.32;4.90;;;8.20;99.90;;;;;;5113911;28;20418;-72
2022/11/07 07:07:57;;;;;;;11.10;4.85;;;8.20;99.90;;;;;;5113560;28;20468;-72
2022/11/07 07:10:24;;;;;;;9.93;4.53;;;8.20;99.90;;;;;;5114162;28;20067;-72
2022/11/07 07:12:49;;;;;;;7.70;5.10;;;8.20;99.90;;;;;;5113508;28;20039;-72
2022/11/07 07:15:15;;;;;;;8.65;4.68;;;8.20;99.90;;;;;;5114021;28;20524;-72
2022/11/07 07:17:40;;;;;;;7.80;4.57;;;8.20;99.90;;;;;;5113426;28;20372;-72
2022/11/07 07:20:07;;;;;;;7.60;4.50;;;8.30;99.90;;;;;;5113394;28;20476;-72
2022/11/07 07:22:32;;;;;;;12.13;5.35;;;8.30;99.90;;;;;;5113602;28;20023;-72
2022/11/07 07:24:58;;;;;;;7.32;4.38;;;8.30;99.90;;;;;;5112461;28;20031;-72
2022/11/07 07:27:24;;;;;;;9.93;4.55;;;8.40;99.90;;;;;;5114074;28;20039;-71
2022/11/07 07:29:52;;;;;;;11.32;5.05;;;8.40;99.90;;;;;;5113238;28;20027;-72
2022/11/07 07:32:18;;;;;;;12.15;5.10;;;8.50;99.90;;;;;;5113554;28;20049;-71
2022/11/07 07:34:44;;;;;;;7.75;4.93;;;8.50;99.90;;;;;;5113630;28;20075;-71
2022/11/07 07:37:09;;;;;;;6.80;4.30;;;8.50;99.90;;;;;;5112747;28;20075;-71
2022/11/07 07:39:35;;;;;;;9.43;4.70;;;8.60;99.90;;;;;;5113209;28;20055;-72
2022/11/07 07:42:01;;;;;;;13.68;5.20;;;8.60;99.90;;;;;;5112998;28;20192;-72
2022/11/07 07:44:26;;;;;;;7.90;4.88;;;8.70;99.90;;;;;;5113227;28;20036;-72
2022/11/07 07:46:52;;;;;;;8.27;5.18;;;8.70;99.90;;;;;;5112550;28;20030;-72
2022/11/07 07:49:18;;;;;;;8.55;4.32;;;8.80;99.90;;;;;;5113436;28;20024;-71
2022/11/07 07:51:43;;;;;;;7.22;4.43;;;8.90;99.90;;;;;;5113597;28;20435;-72
2022/11/07 07:54:12;;;;;;;8.70;4.22;;;8.90;99.90;;;;;;5112499;28;20065;-71
2022/11/07 07:56:37;;;;;;;9.07;4.70;;;8.90;99.90;;;;;;5113088;28;20035;-72
2022/11/07 07:59:03;;;;;;;8.00;4.82;;;9.00;99.90;;;;;;5112446;28;20435;-72
2022/11/07 08:01:29;;;;;;;9.27;4.65;;;9.10;99.90;;;;;;5113044;28;20035;-72
2022/11/07 08:03:54;;;;;;;9.43;4.63;;;9.10;99.90;;;;;;5111115;28;20056;-72
2022/11/07 08:06:20;;;;;;;7.18;4.25;;;9.20;99.90;;;;;;5112877;28;20084;-72
2022/11/07 08:08:45;;;;;;;6.50;4.18;;;9.20;99.90;;;;;;5112622;28;20430;-72
2022/11/07 08:11:11;;;;;;;9.25;4.55;;;9.30;99.90;;;;;;5112480;28;20028;-72
2022/11/07 08:13:37;;;;;;;9.60;4.70;;;9.30;99.90;;;;;;5111768;28;20027;-72
2022/11/07 08:16:06;;;;;;;10.02;5.32;;;9.40;99.90;;;;;;5110872;28;20027;-71
2022/11/07 08:18:32;;;;;;;7.60;4.32;;;9.40;99.90;;;;;;5112811;28;20077;-72
2022/11/07 08:20:58;;;;;;;5.88;4.20;;;9.40;99.90;;;;;;5112403;28;20032;-71
2022/11/07 08:23:24;;;;;;;5.05;3.92;;;9.40;99.90;;;;;;5112738;28;20039;-71
2022/11/07 08:25:50;;;;;;;7.60;4.03;;;9.50;99.90;;;;;;5112999;28;20028;-72
2022/11/07 08:28:16;;;;;;;6.75;4.63;;;9.50;99.90;;;;;;5112206;28;20031;-72
2022/11/07 08:30:42;;;;;;;5.90;4.15;;;9.60;99.90;;;;;;5112557;28;20395;-72
2022/11/07 08:33:08;;;;;;;8.25;5.22;;;9.60;99.90;;;;;;5112282;28;20031;-72
2022/11/07 08:35:33;;;;;;;7.40;4.20;;;9.70;99.90;;;;;;5112596;28;20027;-72
2022/11/07 08:37:59;;;;;;;7.63;4.25;;;9.70;99.90;;;;;;5112184;28;20064;-72
2022/11/07 08:40:26;;;;;;;7.70;4.18;;;9.70;99.90;;;;;;5112599;28;20023;-71
2022/11/07 08:42:52;;;;;;;6.45;4.53;;;9.80;99.90;;;;;;5102594;28;20036;-72
2022/11/07 08:45:18;;;;;;;11.63;4.50;;;9.80;99.90;;;;;;5091751;28;20032;-72
2022/11/07 08:47:43;;;;;;;7.85;4.18;;;9.90;99.90;;;;;;5091858;28;20032;-72
2022/11/07 08:50:09;;;;;;;8.15;4.45;;;10.00;99.90;;;;;;5091469;28;20034;-71
2022/11/07 08:52:35;;;;;;;8.48;4.22;;;10.10;99.90;;;;;;5092032;28;20074;-72
2022/11/07 08:55:02;;;;;;;8.18;4.28;;;10.10;99.90;;;;;;5110417;28;20464;-70
2022/11/07 08:57:28;;;;;;;6.18;3.75;;;10.10;99.90;;;;;;5112250;28;20468;-72
2022/11/07 08:59:54;;;;;;;8.50;4.07;;;10.10;99.90;;;;;;5112396;28;20034;-73
2022/11/07 09:02:20;;;;;;;7.57;4.38;;;10.20;99.90;;;;;;5112172;28;20032;-72
2022/11/07 09:04:45;;;;;;;8.50;4.50;;;10.20;99.90;;;;;;5111722;28;20107;-72
2022/11/07 09:07:11;;;;;;;7.95;3.85;;;10.20;99.90;;;;;;5112036;28;20108;-72
2022/11/07 09:09:36;;;;;;;9.88;4.40;;;10.30;99.90;;;;;;5112025;28;20108;-71
2022/11/07 09:12:02;;;;;;;13.70;7.22;;;10.30;99.90;;;;;;5093380;28;20055;-73
2022/11/07 09:14:28;;;;;;;8.25;5.80;;;10.30;99.90;;;;;;5111972;28;20028;-72
2022/11/07 09:16:53;;;;;;;8.13;4.55;;;10.30;99.90;;;;;;5112147;28;20024;-72
2022/11/07 09:19:19;;;;;;;9.48;4.57;;;10.40;99.90;;;;;;5111630;28;20027;-71
2022/11/07 09:21:45;;;;;;;7.93;4.13;;;10.50;99.90;;;;;;5112317;28;20023;-71
2022/11/07 09:24:11;;;;;;;6.40;4.30;;;10.50;99.90;;;;;;5110252;28;20173;-72
2022/11/07 09:26:36;;;;;;;7.45;4.72;;;10.70;99.90;;;;;;5112768;28;20102;-72
2022/11/07 09:29:03;;;;;;;8.85;4.30;;;10.80;99.90;;;;;;5115545;28;20098;-72
2022/11/07 09:31:28;;;;;;;7.28;4.05;;;11.00;99.90;;;;;;5115845;28;20031;-72
2022/11/07 09:33:54;;;;;;;8.65;4.20;;;11.20;99.90;;;;;;5115719;28;20126;-72
2022/11/07 09:36:21;;;;;;;7.47;4.30;;;11.30;99.90;;;;;;5115215;28;20102;-72
2022/11/07 09:38:46;;;;;;;12.68;4.00;;;11.40;99.90;;;;;;5116199;28;20419;-71
2022/11/07 09:41:27;;;;;;;6.30;3.92;;;11.60;99.90;;;;;;5115184;28;20051;-73
2022/11/07 09:44:12;;;;;;;4.47;2.97;;;11.80;99.90;;;;;;5115677;28;20062;-72
2022/11/07 09:47:10;;;;;;;7.03;3.70;;;11.90;99.90;;;;;;5104208;28;20468;-71
2022/11/07 09:49:44;;;;;;;4.63;3.03;;;12.30;99.90;;;;;;5061095;28;20441;-73
2022/11/07 09:52:18;;;;;;;2.90;2.30;;;12.50;99.90;;;;;;5115168;28;20107;-71
2022/11/07 09:54:50;;;;;;;4.22;2.25;;;12.80;99.90;;;;;;5115840;28;20032;-72
2022/11/07 09:57:18;;;;;;;3.13;2.17;;;13.10;98.60;;;;;;5114961;28;20084;-73
2022/11/07 09:59:46;;;;;;;4.78;2.75;;;13.40;98.70;;;;;;5115057;28;20027;-72
2022/11/07 10:02:17;;;;;;;4.82;2.42;;;13.80;98.60;;;;;;5114999;28;20027;-73
2022/11/07 10:04:44;;;;;;;3.45;2.78;;;14.00;97.50;;;;;;5115286;28;20032;-72
2022/11/07 10:07:12;;;;;;;4.38;1.95;;;14.30;96.80;;;;;;5114998;28;20075;-73
2022/11/07 10:09:51;;;;;;;3.60;1.90;;;14.50;94.80;;;;;;5115560;28;20024;-73
2022/11/07 10:12:23;;;;;;;2.67;1.90;;;14.70;92.90;;;;;;5114639;28;20059;-72
2022/11/07 10:15:07;;;;;;;4.50;2.03;;;14.90;92.20;;;;;;5114992;28;20027;-72
2022/11/07 10:18:12;;;;;;;5.93;2.10;;;15.10;91.40;;;;;;5115296;28;20024;-72
2022/11/07 10:21:05;;;;;;;4.45;2.13;;;15.30;91.60;;;;;;5115141;28;20034;-73
2022/11/07 10:23:36;;;;;;;5.43;2.72;;;15.50;89.50;;;;;;5114902;28;20039;-73
2022/11/07 10:26:11;;;;;;;4.55;2.35;;;15.70;86.10;;;;;;5114834;28;20107;-77
2022/11/07 10:28:46;;;;;;;4.85;2.53;;;15.90;85.80;;;;;;5114956;28;20066;-73
2022/11/07 10:31:13;;;;;;;4.10;2.53;;;16.00;82.40;;;;;;5114267;28;20099;-72
2022/11/07 10:33:50;;;;;;;4.60;3.00;;;16.10;80.90;;;;;;5114620;28;20048;-72
2022/11/07 10:36:27;;;;;;;4.90;2.63;;;16.10;81.20;;;;;;5114218;28;20032;-72
2022/11/07 10:38:53;;;;;;;7.20;3.50;;;16.30;81.30;;;;;;5113122;28;20035;-72
2022/11/07 10:41:28;;;;;;;3.80;2.72;;;16.30;79.00;;;;;;5109918;28;20475;-72
2022/11/07 10:44:06;;;;;;;3.70;2.30;;;16.40;78.10;;;;;;5114856;28;20042;-72
2022/11/07 10:46:58;;;;;;;4.18;2.40;;;16.50;77.00;;;;;;5114516;28;20028;-73
2022/11/07 10:49:28;;;;;;;2.83;2.30;;;16.60;76.60;;;;;;5110728;28;20032;-72
2022/11/07 10:52:08;;;;;;;5.95;2.33;;;16.60;76.50;;;;;;5114365;28;20081;-73
2022/11/07 10:54:34;;;;;;;11.75;2.63;;;16.70;75.00;;;;;;5114339;28;20028;-73
2022/11/07 10:57:00;;;;;;;4.25;2.53;;;16.80;75.30;;;;;;5114349;28;20448;-72
2022/11/07 10:59:28;;;;;;;4.28;2.70;;;16.90;75.60;;;;;;5112616;28;20447;-72
2022/11/07 11:01:57;;;;;;;4.70;2.65;;;17.00;77.10;;;;;;5114281;28;20019;-73
2022/11/07 11:04:23;;;;;;;6.20;2.53;;;17.10;76.40;;;;;;5113903;28;20042;-73
2022/11/07 11:07:03;;;;;;;5.30;2.72;;;17.20;75.10;;;;;;5114115;28;20430;-73
2022/11/07 11:09:34;;;;;;;5.55;2.97;;;17.30;75.00;;;;;;5114135;27;20167;-73
2022/11/07 11:12:11;;;;;;;6.38;2.92;;;17.40;74.10;;;;;;5113760;28;20452;-73
2022/11/07 11:14:37;;;;;;;8.48;2.88;;;17.40;74.50;;;;;;5113699;28;20054;-73
2022/11/07 11:17:03;;;;;;;5.50;2.63;;;17.40;74.80;;;;;;5113645;28;20027;-72
2022/11/07 11:19:48;;;;;;;4.32;2.60;;;17.50;74.70;;;;;;5113369;28;20133;-72
2022/11/07 11:22:17;;;;;;;3.65;2.33;;;17.60;74.80;;;;;;5113433;28;20027;-73
2022/11/07 11:24:43;;;;;;;3.60;2.25;;;17.60;74.00;;;;;;5113623;27;20440;-72
2022/11/07 11:27:16;;;;;;;3.15;2.40;;;17.70;74.70;;;;;;5113368;28;20106;-72
2022/11/07 11:30:06;;;;;;;5.57;2.63;;;17.80;72.80;;;;;;5113269;27;20096;-73
2022/11/07 11:32:41;;;;;;;4.40;2.28;;;17.80;72.40;;;;;;5113652;28;20034;-73
2022/11/07 11:35:19;;;;;;;3.15;2.15;;;17.90;71.70;;;;;;5113259;28;20048;-79
2022/11/07 11:37:56;;;;;;;4.90;2.25;;;18.00;71.80;;;;;;5113586;28;20423;-73
2022/11/07 11:40:23;;;;;;;4.57;2.90;;;18.00;70.80;;;;;;5113162;28;20063;-72
2022/11/07 11:43:22;;;;;;;5.18;2.65;;;18.00;71.40;;;;;;5113440;28;20020;-72
2022/11/07 11:46:12;;;;;;;3.25;2.30;;;18.20;70.80;;;;;;5079499;28;20036;-72
2022/11/07 11:48:45;;;;;;;5.05;2.30;;;18.20;70.10;;;;;;5113307;28;20024;-72
2022/11/07 11:51:14;;;;;;;3.70;2.47;;;18.30;70.60;;;;;;5112246;28;20032;-72
2022/11/07 11:53:40;;;;;;;3.15;2.30;;;18.20;68.70;;;;;;5113231;28;20031;-72
2022/11/07 11:56:05;;;;;;;7.10;2.50;;;18.20;70.20;;;;;;5113207;28;20046;-72
2022/11/07 11:58:41;;;;;;;6.05;2.33;;;18.10;69.50;;;;;;5113116;28;20035;-73
2022/11/07 12:01:43;;;;;;;4.63;2.35;;;18.00;70.00;;;;;;5112066;28;20027;-73
2022/11/07 12:04:30;;;;;;;3.60;2.30;;;18.00;70.80;;;;;;5112420;28;20473;-80
2022/11/07 12:07:30;;;;;;;7.65;2.20;;;18.20;71.00;;;;;;5112757;28;20024;-72
2022/11/07 12:10:27;;;;;;;4.85;2.55;;;18.20;70.40;;;;;;5113110;28;20034;-74
2022/11/07 12:13:11;;;;;;;3.15;2.30;;;18.20;70.10;;;;;;5145417;27;20041;-72
2022/11/07 12:16:01;;;;;;;5.50;2.70;;;18.20;69.50;;;;;;5112781;28;20032;-73
2022/11/07 12:18:47;;;;;;;3.60;2.35;;;18.30;69.60;;;;;;5112336;28;20405;-73
2022/11/07 12:21:15;;;;;;;2.83;2.15;;;18.40;70.30;;;;;;5112387;28;20023;-73
2022/11/07 12:23:50;;;;;;;8.85;3.08;;;18.50;70.60;;;;;;5112902;28;20063;-73
2022/11/07 12:26:49;;;;;;;4.15;2.28;;;18.70;69.90;;;;;;5112510;28;20070;-73
2022/11/07 12:29:30;;;;;;;5.97;2.85;;;18.60;69.60;;;;;;5112474;28;20030;-74
2022/11/07 12:32:20;;;;;;;4.65;2.55;;;18.60;69.30;;;;;;5112796;28;20035;-74
2022/11/07 12:35:16;;;;;;;4.13;2.45;;;18.60;70.40;;;;;;5111416;28;20126;-74
2022/11/07 12:37:59;;;;;;;4.40;2.63;;;18.50;69.70;;;;;;5112670;28;20027;-72
2022/11/07 12:40:43;;;;;;;5.47;2.47;;;18.40;69.80;;;;;;5112148;28;20386;-72
2022/11/07 12:43:43;;;;;;;5.80;2.78;;;18.40;70.90;;;;;;5112545;28;20036;-73
2022/11/07 12:46:11;;;;;;;12.70;3.20;;;18.30;70.60;;;;;;5104375;28;20030;-73
2022/11/07 12:48:49;;;;;;;7.80;1.50;;;18.20;70.30;;;;;;5112458;28;20020;-73
2022/11/07 12:51:27;;;;;;;3.58;1.23;;;18.00;65.60;;;;;;5112103;28;20429;-73
2022/11/07 12:54:18;;;;;;;2.75;1.48;;;17.90;66.20;;;;;;5112550;28;20030;-74
2022/11/07 12:56:46;;;;;;;2.42;1.20;;;17.80;65.10;;;;;;5112510;28;20028;-72
2022/11/07 12:59:20;;;;;;;3.13;0.98;;;17.70;64.30;;;;;;5112460;28;20055;-72
2022/11/07 13:02:11;;;;;;;3.63;0.90;;;17.50;63.30;;;;;;5113562;28;20436;-72
2022/11/07 13:04:58;;;;;;;1.98;0.90;;;17.40;63.60;;;;;;5115992;28;20031;-73
2022/11/07 13:07:42;;;;;;;2.63;0.82;;;17.20;64.20;;;;;;5116000;28;20036;-72
2022/11/07 13:10:14;;;;;;;3.30;1.25;;;17.20;64.90;;;;;;5116046;28;20019;-72
2022/11/07 13:13:02;;;;;;;2.10;0.90;;;17.10;65.10;;;;;;5116092;28;20024;-72
2022/11/07 13:15:29;;;;;;;3.70;0.88;;;17.00;65.00;;;;;;5115982;28;20039;-72
2022/11/07 13:17:54;;;;;;;4.40;1.20;;;16.80;65.30;;;;;;5116077;28;20024;-72